createdAt,value
2018-07-10T00:04:02.191Z,24.00
2018-07-10T00:07:24.988Z,23.90
2018-07-10T00:10:09.845Z,23.90
2018-07-10T00:12:40.481Z,24.00
2018-07-10T00:15:11.973Z,24.00
2018-07-10T00:20:15.272Z,24.10
2018-07-10T00:25:24.389Z,23.90
2018-07-10T00:27:59.528Z,24.00
2018-07-10T00:30:29.029Z,24.00
2018-07-10T00:33:03.040Z,24.00
2018-07-10T00:35:32.562Z,24.00
2018-07-10T00:38:12.953Z,23.90
2018-07-10T00:40:48.432Z,23.90
2018-07-10T00:43:17.616Z,23.90
2018-07-10T00:45:54.760Z,23.90
2018-07-10T00:48:24.341Z,23.90
2018-07-10T00:50:54.642Z,23.80
2018-07-10T00:53:30.559Z,23.80
2018-07-10T00:56:00.934Z,23.90
2018-07-10T00:58:31.275Z,24.00
2018-07-10T01:01:00.412Z,24.00
2018-07-10T01:03:30.128Z,23.90
2018-07-10T01:06:00.228Z,23.90
2018-07-10T01:08:31.862Z,23.90
2018-07-10T01:11:04.725Z,23.90
2018-07-10T01:13:36.093Z,24.00
2018-07-10T01:16:10.892Z,23.90
2018-07-10T01:18:46.685Z,23.90
2018-07-10T01:21:22.232Z,24.00
2018-07-10T01:23:59.487Z,23.90
2018-07-10T01:26:34.284Z,24.00
2018-07-10T01:30:08.668Z,24.00
2018-07-10T01:32:45.777Z,24.00
2018-07-10T01:35:17.631Z,24.00
2018-07-10T01:37:52.579Z,24.10
2018-07-10T01:40:23.842Z,24.00
2018-07-10T01:42:54.419Z,24.10
2018-07-10T01:45:24.412Z,24.20
2018-07-10T01:47:53.294Z,24.30
2018-07-10T01:50:28.504Z,24.30
2018-07-10T01:53:03.840Z,24.40
2018-07-10T01:55:40.078Z,24.50
2018-07-10T01:58:10.998Z,24.50
2018-07-10T02:00:44.616Z,24.60
2018-07-10T02:03:18.755Z,24.60
2018-07-10T02:05:49.677Z,24.60
2018-07-10T02:08:19.779Z,24.60
2018-07-10T02:10:51.450Z,24.70
2018-07-10T02:13:21.410Z,24.70
2018-07-10T02:15:52.070Z,24.70
2018-07-10T02:18:22.441Z,24.70
2018-07-10T02:21:01.616Z,24.70
2018-07-10T02:23:37.826Z,24.80
2018-07-10T02:26:17.904Z,24.80
2018-07-10T02:28:47.681Z,24.80
2018-07-10T02:31:18.169Z,24.80
2018-07-10T02:33:49.355Z,24.80
2018-07-10T02:36:19.485Z,24.80
2018-07-10T02:38:57.322Z,24.70
2018-07-10T02:41:27.641Z,24.70
2018-07-10T02:44:01.761Z,24.70
2018-07-10T02:46:37.342Z,24.70
2018-07-10T02:49:16.222Z,24.70
2018-07-10T02:51:54.626Z,24.70
2018-07-10T02:54:27.189Z,24.60
2018-07-10T02:57:09.417Z,24.60
2018-07-10T02:59:49.081Z,24.60
2018-07-10T03:02:27.423Z,24.60
2018-07-10T03:05:01.378Z,24.60
2018-07-10T03:07:32.965Z,24.50
2018-07-10T03:10:04.211Z,24.50
2018-07-10T03:12:36.342Z,24.50
2018-07-10T03:15:09.420Z,24.50
2018-07-10T03:17:38.226Z,24.50
2018-07-10T03:20:09.621Z,24.50
2018-07-10T03:22:43.566Z,24.50
2018-07-10T03:25:18.452Z,24.50
2018-07-10T03:27:47.385Z,24.50
2018-07-10T03:30:21.713Z,24.50
2018-07-10T03:32:57.763Z,24.50
2018-07-10T03:35:28.710Z,24.40
2018-07-10T03:38:02.868Z,24.50
2018-07-10T03:40:32.136Z,24.50
2018-07-10T03:43:02.571Z,24.40
2018-07-10T03:45:36.387Z,24.40
2018-07-10T03:48:12.868Z,24.40
2018-07-10T03:50:41.732Z,24.30
2018-07-10T03:53:16.623Z,24.30
2018-07-10T03:55:47.119Z,24.30
2018-07-10T03:58:18.212Z,24.30
2018-07-10T04:00:47.965Z,24.30
2018-07-10T04:05:47.316Z,24.20
2018-07-10T04:08:21.267Z,24.20
2018-07-10T04:10:52.902Z,24.10
2018-07-10T04:13:25.733Z,23.80
2018-07-10T04:16:01.466Z,23.90
2018-07-10T04:18:42.846Z,23.90
2018-07-10T04:21:21.642Z,23.80
2018-07-10T04:23:57.388Z,23.80
2018-07-10T04:26:28.871Z,23.90
2018-07-10T04:29:07.364Z,23.90
2018-07-10T04:31:59.642Z,23.90
2018-07-10T04:34:33.475Z,23.90
2018-07-10T04:37:20.893Z,23.80
2018-07-10T04:39:55.469Z,23.80
2018-07-10T04:42:31.646Z,23.80
2018-07-10T04:45:12.942Z,23.80
2018-07-10T04:47:51.729Z,23.70
2018-07-10T04:50:29.126Z,23.70
2018-07-10T04:53:05.473Z,23.80
2018-07-10T04:55:45.247Z,23.90
2018-07-10T04:58:25.869Z,23.90
2018-07-10T05:01:02.105Z,23.90
2018-07-10T05:03:33.910Z,24.00
2018-07-10T05:06:05.972Z,24.10
2018-07-10T05:08:36.906Z,24.00
2018-07-10T05:11:18.841Z,23.90
2018-07-10T05:13:54.114Z,23.90
2018-07-10T05:16:23.019Z,23.80
2018-07-10T05:18:59.501Z,23.80
2018-07-10T05:21:30.164Z,23.80
2018-07-10T05:24:00.413Z,23.80
2018-07-10T05:26:32.721Z,23.90
2018-07-10T05:29:03.324Z,24.00
2018-07-10T05:31:36.627Z,24.10
2018-07-10T05:34:12.138Z,24.20
2018-07-10T05:36:42.081Z,24.30
2018-07-10T05:39:17.415Z,24.30
2018-07-10T05:41:48.977Z,24.30
2018-07-10T05:44:23.048Z,24.40
2018-07-10T05:46:53.645Z,24.30
2018-07-10T05:49:31.283Z,24.40
2018-07-10T05:52:01.866Z,24.40
2018-07-10T05:54:32.329Z,24.10
2018-07-10T05:57:05.150Z,24.00
2018-07-10T05:59:36.105Z,24.00
2018-07-10T06:02:18.688Z,24.10
2018-07-10T06:04:49.689Z,24.10
2018-07-10T06:07:20.294Z,24.10
2018-07-10T06:09:49.569Z,24.20
2018-07-10T06:12:21.298Z,24.10
2018-07-10T06:14:51.878Z,24.00
2018-07-10T06:17:25.453Z,23.90
2018-07-10T06:19:56.433Z,24.00
2018-07-10T06:22:31.232Z,24.10
2018-07-10T06:25:06.933Z,24.10
2018-07-10T06:28:45.665Z,24.20
2018-07-10T06:31:23.934Z,24.30
2018-07-10T06:34:10.061Z,24.40
2018-07-10T06:36:48.326Z,24.50
2018-07-10T06:39:19.140Z,24.60
2018-07-10T06:42:24.513Z,24.60
2018-07-10T06:44:54.041Z,24.80
2018-07-10T06:47:33.769Z,24.50
2018-07-10T06:50:07.409Z,24.50
2018-07-10T06:52:41.665Z,24.40
2018-07-10T06:55:18.962Z,24.50
2018-07-10T06:57:53.328Z,24.60
2018-07-10T07:00:28.361Z,24.70
2018-07-10T07:02:58.358Z,24.90
2018-07-10T07:05:29.691Z,24.70
2018-07-10T07:07:59.115Z,24.80
2018-07-10T07:10:32.802Z,24.90
2018-07-10T07:13:03.323Z,24.90
2018-07-10T07:15:32.802Z,25.00
2018-07-10T07:18:03.497Z,25.20
2018-07-10T07:20:33.062Z,25.30
2018-07-10T07:23:04.778Z,25.40
2018-07-10T07:25:34.061Z,25.60
2018-07-10T07:28:03.338Z,25.70
2018-07-10T07:30:37.349Z,25.90
2018-07-10T07:33:13.275Z,26.00
2018-07-10T07:35:42.813Z,26.10
2018-07-10T07:38:11.606Z,26.20
2018-07-10T07:40:40.743Z,26.40
2018-07-10T07:43:09.765Z,26.40
2018-07-10T07:45:40.104Z,26.50
2018-07-10T07:48:09.124Z,26.60
2018-07-10T07:50:42.308Z,26.60
2018-07-10T07:53:11.108Z,26.50
2018-07-10T07:55:45.097Z,26.60
2018-07-10T07:58:14.213Z,26.70
2018-07-10T08:00:43.752Z,26.80
2018-07-10T08:03:12.959Z,27.00
2018-07-10T08:05:42.326Z,27.10
2018-07-10T08:08:11.066Z,27.10
2018-07-10T08:10:39.971Z,27.10
2018-07-10T08:13:08.838Z,27.10
2018-07-10T08:15:38.299Z,27.20
2018-07-10T08:18:07.070Z,27.30
2018-07-10T08:20:35.900Z,27.40
2018-07-10T08:23:05.260Z,27.50
2018-07-10T08:25:34.212Z,27.60
2018-07-10T08:28:04.025Z,27.60
2018-07-10T08:30:32.966Z,27.70
2018-07-10T08:33:01.826Z,27.70
2018-07-10T08:35:30.673Z,27.90
2018-07-10T08:37:59.457Z,27.90
2018-07-10T08:40:28.359Z,28.00
2018-07-10T08:42:57.155Z,28.00
2018-07-10T08:45:26.253Z,28.00
2018-07-10T08:47:56.884Z,28.00
2018-07-10T08:50:25.964Z,28.00
2018-07-10T08:52:54.921Z,28.10
2018-07-10T08:55:25.398Z,28.10
2018-07-10T08:57:54.234Z,28.20
2018-07-10T09:00:23.080Z,28.20
2018-07-10T09:02:51.974Z,28.20
2018-07-10T09:05:20.881Z,28.20
2018-07-10T09:07:49.676Z,28.20
2018-07-10T09:10:18.492Z,28.20
2018-07-10T09:12:47.347Z,28.20
2018-07-10T09:15:16.102Z,28.30
2018-07-10T09:17:44.929Z,28.30
2018-07-10T09:20:21.730Z,28.30
2018-07-10T09:22:50.608Z,28.30
2018-07-10T09:25:19.422Z,28.30
2018-07-10T09:27:48.235Z,28.40
2018-07-10T09:30:17.651Z,28.40
2018-07-10T09:32:46.559Z,28.40
2018-07-10T09:35:17.044Z,28.40
2018-07-10T09:37:46.684Z,28.50
2018-07-10T09:40:21.118Z,28.50
2018-07-10T09:42:58.880Z,28.50
2018-07-10T09:45:32.776Z,28.50
2018-07-10T09:48:02.403Z,28.50
2018-07-10T09:53:05.857Z,28.50
2018-07-10T09:55:35.713Z,28.50
2018-07-10T09:58:04.556Z,28.50
2018-07-10T10:00:39.425Z,28.50
2018-07-10T10:03:09.081Z,28.50
2018-07-10T10:05:39.915Z,28.50
2018-07-10T10:08:09.615Z,28.60
2018-07-10T10:10:38.694Z,28.60
2018-07-10T10:15:40.420Z,28.70
2018-07-10T10:18:10.079Z,28.80
2018-07-10T10:20:40.657Z,28.70
2018-07-10T10:23:10.881Z,28.70
2018-07-10T10:25:50.198Z,28.80
2018-07-10T10:28:22.161Z,28.90
2018-07-10T10:30:51.102Z,29.00
2018-07-10T10:33:19.966Z,29.00
2018-07-10T10:35:49.365Z,29.10
2018-07-10T10:38:18.765Z,29.10
2018-07-10T10:40:49.330Z,29.20
2018-07-10T10:43:19.032Z,29.20
2018-07-10T10:45:48.232Z,29.30
2018-07-10T10:48:18.576Z,29.30
2018-07-10T10:50:51.241Z,29.30
2018-07-10T10:53:20.959Z,29.30
2018-07-10T10:55:51.079Z,29.20
2018-07-10T10:58:21.688Z,29.20
2018-07-10T11:00:50.909Z,29.20
2018-07-10T11:03:19.704Z,29.10
2018-07-10T11:05:48.600Z,29.10
2018-07-10T11:08:18.687Z,28.70
2018-07-10T11:10:47.832Z,28.70
2018-07-10T11:13:18.048Z,28.70
2018-07-10T11:15:49.391Z,28.60
2018-07-10T11:18:37.852Z,28.50
2018-07-10T11:21:11.777Z,28.40
2018-07-10T11:26:17.871Z,28.20
2018-07-10T11:28:46.801Z,28.10
2018-07-10T11:31:15.614Z,28.00
2018-07-10T11:33:44.414Z,27.90
2018-07-10T11:36:13.221Z,27.70
2018-07-10T11:38:42.160Z,27.30
2018-07-10T11:41:11.866Z,26.70
2018-07-10T11:43:40.698Z,26.20
2018-07-10T11:46:09.568Z,25.30
2018-07-10T11:48:38.409Z,24.60
2018-07-10T11:51:07.544Z,23.80
2018-07-10T11:53:36.764Z,23.50
2018-07-10T11:56:05.599Z,23.30
2018-07-10T11:58:34.420Z,23.10
2018-07-10T12:01:03.709Z,23.00
2018-07-10T12:03:41.571Z,22.70
2018-07-10T12:08:40.072Z,21.70
2018-07-10T12:11:17.406Z,21.60
2018-07-10T12:13:46.475Z,21.70
2018-07-10T12:16:22.028Z,21.90
2018-07-10T12:18:51.493Z,22.00
2018-07-10T12:21:21.186Z,22.10
2018-07-10T12:23:50.194Z,22.10
2018-07-10T12:26:19.571Z,22.00
2018-07-10T12:28:49.412Z,22.20
2018-07-10T12:31:18.410Z,22.30
2018-07-10T12:33:47.451Z,22.30
2018-07-10T12:36:16.381Z,22.30
2018-07-10T12:38:45.488Z,22.40
2018-07-10T12:41:14.763Z,22.50
2018-07-10T12:43:43.609Z,22.60
2018-07-10T12:46:14.506Z,22.80
2018-07-10T12:48:45.552Z,22.80
2018-07-10T12:51:15.108Z,22.90
2018-07-10T12:53:44.821Z,22.90
2018-07-10T12:56:13.869Z,22.70
2018-07-10T12:58:44.215Z,22.50
2018-07-10T13:01:13.883Z,22.60
2018-07-10T13:03:43.621Z,22.50
2018-07-10T13:06:12.900Z,22.60
2018-07-10T13:08:42.045Z,22.70
2018-07-10T13:11:11.496Z,22.70
2018-07-10T13:13:41.484Z,22.70
2018-07-10T13:16:10.517Z,22.60
2018-07-10T13:18:40.794Z,22.70
2018-07-10T13:21:10.273Z,22.80
2018-07-10T13:23:39.185Z,22.80
2018-07-10T13:26:08.438Z,22.60
2018-07-10T13:28:39.407Z,22.30
2018-07-10T13:31:08.717Z,22.20
2018-07-10T13:33:38.602Z,22.30
2018-07-10T13:36:07.841Z,22.40
2018-07-10T13:38:38.368Z,22.30
2018-07-10T13:41:07.319Z,22.40
2018-07-10T13:43:36.406Z,22.50
2018-07-10T13:46:05.373Z,22.50
2018-07-10T13:48:34.176Z,22.60
2018-07-10T13:51:04.584Z,22.50
2018-07-10T13:53:38.433Z,22.50
2018-07-10T13:56:07.607Z,22.60
2018-07-10T13:58:37.948Z,22.50
2018-07-10T14:01:09.632Z,22.40
2018-07-10T14:03:38.702Z,22.40
2018-07-10T14:06:07.827Z,22.40
2018-07-10T14:11:05.713Z,22.50
2018-07-10T14:16:03.203Z,22.40
2018-07-10T14:18:32.021Z,22.40
2018-07-10T14:21:02.970Z,22.20
2018-07-10T14:23:31.815Z,22.00
2018-07-10T14:26:00.640Z,22.00
2018-07-10T14:28:29.651Z,22.00
2018-07-10T14:30:59.468Z,22.00
2018-07-10T14:33:29.505Z,21.90
2018-07-10T14:35:58.402Z,21.70
2018-07-10T14:38:29.065Z,21.70
2018-07-10T14:41:01.876Z,21.60
2018-07-10T14:43:37.566Z,21.70
2018-07-10T14:46:11.062Z,21.80
2018-07-10T14:48:45.098Z,21.80
2018-07-10T14:51:15.775Z,21.80
2018-07-10T14:53:44.686Z,21.90
2018-07-10T14:56:13.618Z,22.00
2018-07-10T14:58:42.795Z,22.20
2018-07-10T15:01:11.653Z,22.10
2018-07-10T15:03:41.113Z,22.10
2018-07-10T15:06:10.914Z,22.10
2018-07-10T15:08:39.746Z,22.30
2018-07-10T15:11:08.536Z,22.30
2018-07-10T15:13:48.547Z,22.40
2018-07-10T15:16:17.282Z,22.40
2018-07-10T15:18:49.961Z,22.30
2018-07-10T15:21:19.522Z,22.40
2018-07-10T15:23:49.272Z,22.40
2018-07-10T15:26:18.937Z,22.30
2018-07-10T15:28:47.967Z,22.30
2018-07-10T15:31:16.809Z,22.00
2018-07-10T15:33:49.618Z,22.00
2018-07-10T15:36:18.430Z,22.10
2018-07-10T15:38:48.528Z,21.90
2018-07-10T15:43:46.755Z,21.80
2018-07-10T15:46:15.514Z,21.80
2018-07-10T15:51:12.881Z,21.60
2018-07-10T15:56:10.096Z,21.50
2018-07-10T15:58:38.998Z,21.70
2018-07-10T16:01:08.246Z,21.80
2018-07-10T16:03:37.202Z,21.90
2018-07-10T16:06:06.352Z,21.90
2018-07-10T16:08:37.637Z,22.00
2018-07-10T16:11:06.780Z,22.10
2018-07-10T16:13:42.065Z,22.20
2018-07-10T16:16:15.913Z,22.30
2018-07-10T16:21:15.649Z,22.50
2018-07-10T16:23:44.464Z,22.60
2018-07-10T16:26:20.599Z,22.60
2018-07-10T16:28:51.417Z,22.70
2018-07-10T16:31:22.244Z,22.90
2018-07-10T16:33:51.113Z,23.00
2018-07-10T16:36:19.997Z,23.10
2018-07-10T16:38:48.836Z,23.10
2018-07-10T16:41:23.212Z,23.20
2018-07-10T16:43:53.157Z,23.20
2018-07-10T16:46:28.082Z,23.30
2018-07-10T16:49:04.530Z,23.30
2018-07-10T16:51:44.740Z,23.30
2018-07-10T16:54:14.045Z,23.30
2018-07-10T16:56:42.801Z,23.30
2018-07-10T16:59:11.753Z,23.30
2018-07-10T17:01:41.377Z,23.30
2018-07-10T17:04:10.846Z,23.30
2018-07-10T17:09:08.207Z,23.20
2018-07-10T17:11:37.139Z,23.20
2018-07-10T17:14:06.099Z,23.30
2018-07-10T17:21:32.180Z,23.00
2018-07-10T17:24:03.721Z,23.00
2018-07-10T17:26:34.239Z,23.00
2018-07-10T17:29:08.026Z,22.90
2018-07-10T17:31:37.117Z,22.70
2018-07-10T17:34:06.265Z,22.60
2018-07-10T17:36:35.233Z,22.40
2018-07-10T17:39:05.680Z,22.20
2018-07-10T17:41:36.455Z,21.90
2018-07-10T17:44:07.270Z,21.70
2018-07-10T17:46:36.262Z,21.60
2018-07-10T17:49:05.330Z,21.50
2018-07-10T17:54:03.329Z,21.50
2018-07-10T17:56:32.232Z,21.40
2018-07-10T17:59:01.895Z,21.40
2018-07-10T18:01:30.854Z,21.30
2018-07-10T18:03:59.660Z,21.30
2018-07-10T18:06:28.482Z,21.30
2018-07-10T18:08:57.241Z,21.20
2018-07-10T18:11:26.587Z,21.30
2018-07-10T18:16:28.659Z,21.30
2018-07-10T18:18:57.530Z,21.30
2018-07-10T18:21:27.291Z,21.30
2018-07-10T18:23:56.882Z,21.40
2018-07-10T18:26:25.753Z,21.30
2018-07-10T18:28:56.850Z,21.40
2018-07-10T18:31:28.311Z,21.40
2018-07-10T18:33:57.159Z,21.40
2018-07-10T18:36:26.076Z,21.40
2018-07-10T18:38:57.688Z,21.40
2018-07-10T18:41:26.470Z,21.20
2018-07-10T18:43:55.272Z,21.10
2018-07-10T18:46:24.091Z,21.20
2018-07-10T18:48:53.320Z,21.10
2018-07-10T18:51:22.363Z,21.10
2018-07-10T18:53:51.177Z,20.90
2018-07-10T18:56:20.524Z,20.80
2018-07-10T18:58:58.295Z,20.70
2018-07-10T19:02:00.587Z,20.70
2018-07-10T19:04:38.804Z,20.80
2018-07-10T19:07:07.712Z,20.80
2018-07-10T19:09:37.509Z,20.70
2018-07-10T19:12:09.296Z,20.70
2018-07-10T19:14:38.763Z,20.70
2018-07-10T19:17:14.762Z,20.70
2018-07-10T19:19:51.137Z,20.70
2018-07-10T19:22:23.072Z,20.80
2018-07-10T19:24:51.920Z,20.90
2018-07-10T19:27:26.388Z,20.80
2018-07-10T19:29:56.724Z,20.80
2018-07-10T19:32:25.869Z,20.90
2018-07-10T19:35:01.621Z,21.00
2018-07-10T19:37:32.885Z,21.00
2018-07-10T19:40:01.671Z,21.00
2018-07-10T19:42:32.221Z,21.00
2018-07-10T19:45:02.058Z,21.10
2018-07-10T19:47:31.445Z,21.10
2018-07-10T19:50:09.544Z,21.10
2018-07-10T19:52:38.497Z,21.00
2018-07-10T19:55:07.393Z,20.80
2018-07-10T19:58:16.839Z,20.80
2018-07-10T20:00:51.414Z,20.80
2018-07-10T20:03:47.164Z,20.80
2018-07-10T20:06:25.886Z,20.90
2018-07-10T20:08:58.281Z,21.00
2018-07-10T20:11:33.191Z,21.00
2018-07-10T20:14:02.100Z,21.10
2018-07-10T20:16:51.702Z,21.10
2018-07-10T20:20:24.317Z,21.10
2018-07-10T20:23:24.692Z,20.90
2018-07-10T20:26:28.741Z,20.90
2018-07-10T20:29:10.572Z,20.90
2018-07-10T20:31:47.161Z,21.00
2018-07-10T20:34:39.733Z,21.10
2018-07-10T20:37:16.069Z,21.20
2018-07-10T20:39:44.929Z,21.30
2018-07-10T20:42:13.784Z,21.30
2018-07-10T20:44:50.738Z,21.40
2018-07-10T20:47:20.396Z,21.40
2018-07-10T20:49:56.697Z,21.50
2018-07-10T20:52:31.600Z,21.50
2018-07-10T20:55:04.931Z,21.60
2018-07-10T20:57:41.082Z,21.60
2018-07-10T21:03:18.981Z,21.70
2018-07-10T21:05:50.690Z,21.60
2018-07-10T21:08:31.646Z,21.60
2018-07-10T21:11:05.746Z,21.60
2018-07-10T21:13:54.531Z,21.60
2018-07-10T21:16:36.384Z,21.60
2018-07-10T21:20:30.066Z,21.70
2018-07-10T21:25:10.044Z,21.50
2018-07-10T21:28:45.536Z,21.30
2018-07-10T21:32:26.053Z,21.30
2018-07-10T21:34:55.058Z,21.20
2018-07-10T21:37:35.345Z,21.00
2018-07-10T21:41:23.116Z,21.00
2018-07-10T21:44:30.982Z,21.00
2018-07-10T21:47:04.510Z,20.90
2018-07-10T21:49:48.526Z,20.90
2018-07-10T21:52:18.113Z,20.90
2018-07-10T21:54:47.841Z,21.00
2018-07-10T21:57:18.083Z,21.00
2018-07-10T21:59:54.443Z,21.10
2018-07-10T22:02:23.793Z,21.10
2018-07-10T22:04:54.529Z,21.20
2018-07-10T22:07:26.301Z,21.30
2018-07-10T22:10:00.089Z,21.30
2018-07-10T22:12:29.109Z,21.40
2018-07-10T22:14:59.092Z,21.50
2018-07-10T22:17:29.417Z,21.50
2018-07-10T22:20:02.658Z,21.60
2018-07-10T22:22:32.990Z,21.60
2018-07-10T22:25:06.205Z,21.60
2018-07-10T22:27:37.888Z,21.60
2018-07-10T22:30:11.946Z,21.60
2018-07-10T22:32:46.793Z,21.60
2018-07-10T22:35:16.436Z,21.60
2018-07-10T22:37:45.297Z,21.70
2018-07-10T22:40:14.658Z,21.60
2018-07-10T22:42:43.512Z,21.60
2018-07-10T22:45:13.414Z,21.60
2018-07-10T22:47:43.077Z,21.60
2018-07-10T22:50:15.921Z,21.60
2018-07-10T22:52:51.207Z,21.60
2018-07-10T22:55:21.924Z,21.60
2018-07-10T22:57:52.532Z,21.60
2018-07-10T23:00:33.629Z,21.60
2018-07-10T23:03:12.469Z,21.60
2018-07-10T23:05:41.298Z,21.50
2018-07-10T23:08:10.169Z,21.40
2018-07-10T23:10:39.110Z,21.30
2018-07-10T23:13:07.976Z,21.30
2018-07-10T23:15:36.905Z,21.20
2018-07-10T23:18:06.243Z,21.10
2018-07-10T23:20:35.343Z,21.10
2018-07-10T23:23:04.254Z,21.10
2018-07-10T23:25:33.500Z,21.10
2018-07-10T23:28:04.415Z,21.10
2018-07-10T23:30:38.859Z,21.10
2018-07-10T23:33:10.862Z,21.00
2018-07-10T23:35:41.633Z,21.10
2018-07-10T23:39:16.892Z,21.10
2018-07-10T23:41:53.245Z,21.20
2018-07-10T23:44:25.536Z,21.10
2018-07-10T23:46:58.582Z,21.00
2018-07-10T23:49:30.406Z,20.90
2018-07-10T23:52:10.390Z,20.90
2018-07-10T23:54:39.425Z,20.90
2018-07-10T23:57:08.542Z,20.80
2018-07-10T23:59:38.957Z,20.70
